Time;durP1;ratioP1;P1;durP2;ratioP2;P2;SDS_P1;SDS_P2;PMS_P1;PMS_P2;Temp;Humidity;BMP_temperature;BMP_pressure;BME280_temperature;BME280_humidity;BME280_pressure;Samples;Min_cycle;Max_cycle;Signal;HPM_P1;HPM_P2
2022/12/01 08:51:56;;;;;;;22.57;9.13;;;7.40;99.90;;;;;;3229077;23;20234;-73
2022/12/01 08:54:42;;;;;;;29.60;9.53;;;7.50;99.90;;;;;;4898705;29;20214;-73
2022/12/01 08:57:08;;;;;;;23.77;9.50;;;7.40;99.90;;;;;;4899450;29;20670;-74
2022/12/01 08:59:35;;;;;;;21.00;8.17;;;7.50;99.90;;;;;;4889058;29;20235;-74
2022/12/01 09:02:02;;;;;;;22.43;8.43;;;7.50;99.90;;;;;;4880637;29;20207;-73
2022/12/01 09:04:29;;;;;;;20.83;8.87;;;7.50;99.90;;;;;;4880911;29;20215;-74
2022/12/01 09:06:57;;;;;;;20.90;8.83;;;7.50;99.90;;;;;;4880695;29;20389;-73
2022/12/01 09:09:26;;;;;;;24.73;8.60;;;7.40;99.90;;;;;;4880370;29;20313;-70
2022/12/01 09:11:53;;;;;;;22.53;8.87;;;7.40;99.90;;;;;;4880598;29;20214;-69
2022/12/01 09:14:21;;;;;;;19.37;8.23;;;7.40;99.90;;;;;;4880493;29;20215;-69
2022/12/01 09:16:50;;;;;;;25.47;10.57;;;7.50;99.90;;;;;;4880761;29;20203;-69
2022/12/01 09:19:17;;;;;;;21.20;8.73;;;7.60;99.90;;;;;;4880776;29;20317;-70
2022/12/01 09:21:45;;;;;;;22.37;7.93;;;7.50;99.90;;;;;;4880442;29;20237;-69
2022/12/01 09:24:14;;;;;;;22.67;9.07;;;7.50;99.90;;;;;;4880143;29;20601;-69
2022/12/01 09:26:41;;;;;;;24.33;8.33;;;7.60;99.90;;;;;;4880547;29;20294;-69
2022/12/01 09:29:11;;;;;;;19.37;7.93;;;7.60;99.90;;;;;;4880394;29;20231;-69
2022/12/01 09:31:38;;;;;;;26.10;8.93;;;7.50;99.90;;;;;;4880135;29;20211;-70
2022/12/01 09:34:06;;;;;;;17.83;8.47;;;7.40;99.90;;;;;;4880446;29;20211;-69
2022/12/01 09:36:35;;;;;;;23.43;8.73;;;7.40;99.90;;;;;;4880110;29;20215;-70
2022/12/01 09:39:03;;;;;;;22.57;8.77;;;7.60;99.90;;;;;;4879683;29;20231;-69
2022/12/01 09:41:35;;;;;;;22.67;8.83;;;7.60;99.90;;;;;;4880004;29;20211;-69
2022/12/01 09:44:14;;;;;;;22.97;9.73;;;7.60;99.90;;;;;;4879350;29;20246;-70
2022/12/01 09:46:44;;;;;;;24.43;8.23;;;7.40;99.90;;;;;;4879843;29;20255;-69
2022/12/01 09:49:17;;;;;;;27.00;9.30;;;7.40;99.90;;;;;;4880218;29;20318;-71
2022/12/01 09:51:44;;;;;;;20.07;8.57;;;7.50;99.90;;;;;;4879999;29;20211;-69
2022/12/01 09:54:14;;;;;;;22.17;9.27;;;7.70;99.90;;;;;;4880046;29;20223;-69
2022/12/01 09:56:44;;;;;;;20.77;8.90;;;7.60;99.90;;;;;;4880069;29;20207;-69
2022/12/01 09:59:19;;;;;;;20.63;7.87;;;7.60;99.90;;;;;;4879637;29;20235;-69
2022/12/01 10:01:49;;;;;;;24.20;9.20;;;7.70;99.90;;;;;;4879926;29;20670;-69
2022/12/01 10:04:20;;;;;;;25.67;9.03;;;7.50;99.90;;;;;;4879445;29;20786;-69
2022/12/01 10:06:52;;;;;;;21.93;8.70;;;7.40;99.90;;;;;;4879670;29;20211;-68
2022/12/01 10:09:24;;;;;;;21.43;8.77;;;7.70;99.90;;;;;;4879466;29;20594;-69
2022/12/01 10:11:59;;;;;;;24.17;9.90;;;7.70;99.90;;;;;;4879981;29;20239;-69
2022/12/01 10:14:36;;;;;;;22.60;9.67;;;7.50;99.90;;;;;;4879793;29;20293;-69
2022/12/01 10:17:11;;;;;;;23.03;9.50;;;7.60;99.90;;;;;;4879986;29;20211;-69
2022/12/01 10:19:43;;;;;;;18.17;7.63;;;7.80;99.90;;;;;;4879640;29;20234;-69
2022/12/01 10:22:26;;;;;;;22.37;8.90;;;7.70;99.90;;;;;;4879785;29;20211;-69
2022/12/01 10:24:55;;;;;;;22.47;8.83;;;7.60;99.90;;;;;;4879368;29;20751;-69
2022/12/01 10:27:34;;;;;;;22.10;8.13;;;7.60;99.90;;;;;;4879264;29;20215;-69
2022/12/01 10:30:05;;;;;;;21.33;8.63;;;7.70;99.90;;;;;;4878992;29;20235;-71
2022/12/01 10:32:45;;;;;;;22.27;8.30;;;7.70;99.90;;;;;;4879244;29;20211;-69
2022/12/01 10:35:20;;;;;;;19.13;8.80;;;7.80;99.90;;;;;;4879375;29;20708;-70
2022/12/01 10:37:49;;;;;;;21.60;7.73;;;7.70;99.90;;;;;;4879365;29;20311;-69
2022/12/01 10:40:18;;;;;;;16.20;7.53;;;7.70;99.90;;;;;;4879201;29;20241;-69
2022/12/01 10:42:47;;;;;;;17.50;7.53;;;7.80;99.90;;;;;;4879154;29;20235;-69
2022/12/01 10:45:16;;;;;;;20.10;9.17;;;8.00;99.90;;;;;;4879186;29;20211;-69
2022/12/01 10:48:13;;;;;;;14.97;7.20;;;8.20;99.90;;;;;;4879212;29;20211;-70
2022/12/01 10:50:41;;;;;;;20.53;8.57;;;8.40;99.90;;;;;;4879333;29;20223;-70
2022/12/01 10:53:27;;;;;;;18.20;7.67;;;8.30;99.90;;;;;;4879279;29;20226;-69
2022/12/01 10:56:04;;;;;;;19.30;7.83;;;8.40;99.90;;;;;;4879649;29;20217;-69
2022/12/01 10:58:39;;;;;;;21.53;8.20;;;8.30;99.90;;;;;;4882868;29;20210;-68
2022/12/01 11:01:07;;;;;;;20.27;8.23;;;8.40;99.90;;;;;;4883348;29;20569;-68
2022/12/01 11:03:36;;;;;;;17.10;7.27;;;8.20;99.90;;;;;;4882726;29;20234;-69
2022/12/01 11:06:05;;;;;;;16.93;7.37;;;8.00;99.90;;;;;;4882298;29;20242;-68
2022/12/01 11:08:38;;;;;;;18.30;7.63;;;8.00;99.90;;;;;;4881950;29;20210;-68
2022/12/01 11:11:05;;;;;;;17.10;7.57;;;8.10;99.90;;;;;;4882820;29;20229;-68
2022/12/01 11:13:36;;;;;;;15.60;6.97;;;8.00;99.90;;;;;;4882780;29;20207;-68
2022/12/01 11:16:06;;;;;;;16.27;6.40;;;7.90;99.90;;;;;;4882561;29;20218;-68
2022/12/01 11:18:35;;;;;;;17.00;7.33;;;7.90;99.90;;;;;;4882327;29;20211;-69
2022/12/01 11:21:12;;;;;;;15.70;6.47;;;7.90;99.90;;;;;;4882071;29;20310;-69
2022/12/01 11:23:45;;;;;;;14.17;6.57;;;8.00;99.90;;;;;;4881577;29;20245;-69
2022/12/01 11:26:15;;;;;;;18.47;7.17;;;8.20;99.90;;;;;;4882423;29;20211;-69
2022/12/01 11:28:52;;;;;;;14.27;6.17;;;8.30;99.90;;;;;;4882452;29;20239;-69
2022/12/01 11:31:20;;;;;;;16.63;6.47;;;8.30;99.90;;;;;;4882759;29;20207;-70
2022/12/01 11:33:50;;;;;;;14.40;6.20;;;8.10;99.90;;;;;;4882659;29;20211;-70
2022/12/01 11:36:27;;;;;;;15.83;6.20;;;8.40;99.90;;;;;;4882559;29;20215;-68
2022/12/01 11:39:00;;;;;;;18.47;7.17;;;8.50;99.90;;;;;;4882335;29;20262;-70
2022/12/01 11:41:34;;;;;;;14.87;6.23;;;8.60;99.90;;;;;;4882513;29;20211;-69
2022/12/01 11:44:03;;;;;;;13.53;6.03;;;8.80;99.90;;;;;;4882658;29;20660;-69
2022/12/01 11:46:34;;;;;;;12.57;5.73;;;8.90;99.90;;;;;;4882169;29;20207;-69
2022/12/01 11:49:01;;;;;;;16.67;6.70;;;9.10;99.90;;;;;;4882281;29;20227;-70
2022/12/01 11:51:35;;;;;;;12.30;5.73;;;9.10;99.90;;;;;;4882068;29;20263;-68
2022/12/01 11:54:13;;;;;;;11.90;5.70;;;8.80;99.90;;;;;;4881665;29;20275;-68
2022/12/01 11:56:41;;;;;;;13.27;6.07;;;8.50;99.90;;;;;;4881502;29;20297;-68
2022/12/01 11:59:14;;;;;;;12.50;5.60;;;8.30;99.90;;;;;;4881746;29;20242;-69
2022/12/01 12:02:04;;;;;;;13.73;5.60;;;8.30;99.90;;;;;;4881944;29;20213;-70
2022/12/01 12:04:55;;;;;;;17.17;5.63;;;8.40;99.90;;;;;;4881572;29;20690;-69
2022/12/01 12:07:36;;;;;;;14.97;5.70;;;8.60;99.90;;;;;;4881526;29;20219;-69
2022/12/01 12:10:16;;;;;;;15.47;6.07;;;8.90;99.90;;;;;;4881713;29;20242;-70
2022/12/01 12:12:58;;;;;;;14.90;5.90;;;9.00;99.90;;;;;;4881852;29;20211;-70
2022/12/01 12:15:36;;;;;;;11.63;5.27;;;9.10;99.90;;;;;;4881835;29;20222;-69
2022/12/01 12:18:21;;;;;;;15.53;6.43;;;8.90;99.90;;;;;;4881680;29;20215;-69
2022/12/01 12:21:02;;;;;;;11.90;5.57;;;8.90;99.90;;;;;;4881942;29;20211;-69
2022/12/01 12:23:47;;;;;;;19.03;7.03;;;8.80;99.90;;;;;;4881437;29;20245;-69
2022/12/01 12:26:19;;;;;;;15.00;6.37;;;8.90;99.90;;;;;;4875768;29;20211;-72
2022/12/01 12:29:00;;;;;;;17.47;6.50;;;8.90;99.90;;;;;;4880639;29;20235;-73
2022/12/01 12:31:39;;;;;;;19.20;6.53;;;8.80;99.90;;;;;;4879070;29;20217;-73
2022/12/01 12:34:22;;;;;;;17.63;7.33;;;8.70;99.90;;;;;;4879114;29;20232;-72
2022/12/01 12:36:58;;;;;;;15.07;6.90;;;8.50;99.90;;;;;;4879437;29;20310;-73
2022/12/01 12:39:54;;;;;;;17.67;6.70;;;8.50;99.90;;;;;;4879789;29;20257;-69
2022/12/01 12:42:33;;;;;;;16.47;7.40;;;8.50;99.90;;;;;;4879583;29;20207;-69
2022/12/01 12:45:06;;;;;;;16.20;7.07;;;8.30;99.90;;;;;;4879422;29;20249;-71
2022/12/01 12:47:58;;;;;;;18.00;6.87;;;8.20;99.90;;;;;;4879995;29;20218;-70
2022/12/01 12:50:31;;;;;;;17.03;7.07;;;8.00;99.90;;;;;;4879941;29;20231;-72
2022/12/01 12:53:02;;;;;;;16.43;7.23;;;8.00;99.90;;;;;;4881577;29;20219;-73
2022/12/01 12:55:34;;;;;;;17.13;6.60;;;8.30;99.90;;;;;;4881521;29;20694;-74
2022/12/01 12:58:06;;;;;;;17.43;6.90;;;8.40;99.90;;;;;;4881448;29;20218;-73
2022/12/01 13:00:35;;;;;;;19.27;7.13;;;8.10;99.90;;;;;;4881233;29;20235;-73
2022/12/01 13:03:14;;;;;;;18.70;7.13;;;7.90;99.90;;;;;;4880616;29;20278;-73
2022/12/01 13:05:48;;;;;;;16.87;7.27;;;8.10;99.90;;;;;;4880072;29;20211;-71
2022/12/01 13:08:20;;;;;;;18.70;6.90;;;8.30;99.90;;;;;;4880312;29;20215;-72
2022/12/01 13:10:51;;;;;;;19.00;7.23;;;8.40;99.90;;;;;;4880502;29;20221;-71
2022/12/01 13:13:27;;;;;;;18.40;7.33;;;8.20;99.90;;;;;;4880309;29;20610;-71
2022/12/01 13:15:56;;;;;;;21.17;8.03;;;8.30;99.90;;;;;;4880314;29;20546;-72
2022/12/01 13:18:33;;;;;;;21.33;7.40;;;8.40;99.90;;;;;;4879082;29;20233;-71
2022/12/01 13:21:03;;;;;;;15.33;6.73;;;8.40;99.90;;;;;;4877289;29;20227;-71
2022/12/01 13:23:30;;;;;;;19.23;7.40;;;8.50;99.90;;;;;;4878758;29;20239;-73
2022/12/01 13:25:59;;;;;;;17.23;7.73;;;8.40;99.90;;;;;;4878994;29;20549;-71
2022/12/01 13:28:29;;;;;;;20.00;7.27;;;8.50;99.90;;;;;;4879258;29;20217;-70
2022/12/01 13:31:04;;;;;;;19.23;7.83;;;8.60;99.90;;;;;;4876967;29;20215;-70
2022/12/01 13:33:34;;;;;;;17.40;7.57;;;8.70;99.90;;;;;;4879630;29;20274;-73
2022/12/01 13:36:01;;;;;;;13.87;7.00;;;8.70;99.90;;;;;;4877322;29;20873;-71
2022/12/01 13:38:31;;;;;;;21.57;7.63;;;8.50;99.90;;;;;;4878077;29;20294;-72
2022/12/01 13:41:13;;;;;;;18.00;6.77;;;8.30;99.90;;;;;;4877833;29;20934;-71
2022/12/01 13:43:52;;;;;;;15.23;6.80;;;8.40;99.90;;;;;;4879227;29;20257;-71
2022/12/01 13:46:23;;;;;;;18.57;6.83;;;8.30;99.90;;;;;;4877233;29;20212;-71
2022/12/01 13:48:53;;;;;;;21.03;7.60;;;8.60;99.90;;;;;;4878169;29;20229;-72
2022/12/01 13:51:20;;;;;;;16.83;7.20;;;8.70;99.90;;;;;;4879043;29;20293;-73
2022/12/01 13:54:04;;;;;;;14.97;6.70;;;8.70;99.90;;;;;;4878830;29;20556;-72
2022/12/01 13:56:46;;;;;;;15.37;7.17;;;8.80;99.90;;;;;;4878563;29;20203;-73
2022/12/01 14:00:01;;;;;;;17.50;7.07;;;8.70;99.90;;;;;;4878715;29;20223;-72
2022/12/01 14:02:29;;;;;;;16.43;6.90;;;8.40;99.90;;;;;;4878235;29;20204;-71
2022/12/01 14:05:36;;;;;;;18.90;6.80;;;8.30;99.90;;;;;;4876621;29;20620;-73
2022/12/01 14:08:15;;;;;;;14.73;6.97;;;8.40;99.90;;;;;;4872174;29;20316;-76
2022/12/01 14:10:54;;;;;;;17.87;6.60;;;8.50;99.90;;;;;;4874222;29;20293;-75
2022/12/01 14:13:22;;;;;;;12.97;5.33;;;8.50;99.90;;;;;;4877376;29;20218;-74
2022/12/01 14:15:55;;;;;;;14.53;5.73;;;8.40;99.90;;;;;;4876533;29;20726;-74
2022/12/01 14:18:31;;;;;;;12.60;6.20;;;8.30;99.90;;;;;;4876345;29;20660;-75
2022/12/01 14:21:01;;;;;;;13.27;6.40;;;7.90;99.90;;;;;;4872019;29;20221;-73
2022/12/01 14:23:32;;;;;;;15.17;5.73;;;8.00;99.90;;;;;;4875669;29;20298;-74
2022/12/01 14:26:18;;;;;;;12.80;6.00;;;8.10;99.90;;;;;;4879349;29;20214;-74
2022/12/01 14:29:25;;;;;;;14.27;5.63;;;8.10;99.90;;;;;;4877417;29;20227;-74
2022/12/01 14:32:23;;;;;;;14.67;6.17;;;8.30;99.90;;;;;;4875534;29;20211;-74
2022/12/01 14:35:08;;;;;;;13.60;6.23;;;8.20;99.90;;;;;;4877315;29;20746;-75
2022/12/01 14:37:44;;;;;;;12.60;6.17;;;8.30;99.90;;;;;;4875812;29;20210;-75
2022/12/01 14:40:29;;;;;;;15.40;6.83;;;8.50;99.90;;;;;;4875008;29;20590;-74
2022/12/01 14:45:50;;;;;;;13.23;6.33;;;8.40;99.90;;;;;;4876869;29;20308;-74
2022/12/01 14:48:23;;;;;;;15.50;6.00;;;8.50;99.90;;;;;;4877745;29;20671;-74
2022/12/01 14:50:55;;;;;;;13.17;6.43;;;8.50;99.90;;;;;;4875226;29;20203;-73
2022/12/01 14:53:27;;;;;;;15.67;7.10;;;8.40;99.90;;;;;;4876901;29;20215;-74
2022/12/01 14:55:56;;;;;;;15.70;6.87;;;8.30;99.90;;;;;;4878645;29;20211;-73
2022/12/01 14:58:26;;;;;;;14.47;6.23;;;8.40;99.90;;;;;;4874483;29;20207;-73
2022/12/01 15:00:59;;;;;;;15.70;6.73;;;8.50;99.90;;;;;;4876635;29;20213;-73
2022/12/01 15:03:29;;;;;;;18.13;7.60;;;8.50;99.90;;;;;;4875178;29;20211;-73
2022/12/01 15:05:56;;;;;;;14.93;6.73;;;8.60;99.90;;;;;;4876698;29;20238;-73
2022/12/01 15:08:26;;;;;;;15.27;6.97;;;8.50;99.90;;;;;;4876424;29;20623;-73
2022/12/01 15:10:55;;;;;;;20.27;7.10;;;8.40;99.90;;;;;;4877238;29;20203;-73
2022/12/01 15:13:26;;;;;;;16.50;7.00;;;8.50;99.90;;;;;;4874827;29;20211;-73
2022/12/01 15:15:55;;;;;;;13.47;6.27;;;8.40;99.90;;;;;;4877155;29;20233;-73
2022/12/01 15:18:24;;;;;;;16.70;6.93;;;8.20;99.90;;;;;;4874916;29;20563;-74
2022/12/01 15:20:58;;;;;;;19.30;7.53;;;8.20;99.90;;;;;;4877318;29;20229;-74
2022/12/01 15:23:26;;;;;;;16.97;6.87;;;8.40;99.90;;;;;;4877767;29;20235;-73
2022/12/01 15:25:53;;;;;;;17.47;8.00;;;8.50;99.90;;;;;;4877093;29;20227;-73
2022/12/01 15:28:28;;;;;;;15.33;6.67;;;8.50;99.90;;;;;;4877321;29;20211;-74
2022/12/01 15:30:55;;;;;;;16.00;6.73;;;8.40;99.90;;;;;;4875280;29;20206;-72
2022/12/01 15:33:26;;;;;;;16.47;6.90;;;8.50;99.90;;;;;;4877098;29;20217;-73
2022/12/01 15:35:54;;;;;;;17.97;7.73;;;8.40;99.90;;;;;;4874865;29;20214;-74
2022/12/01 15:38:23;;;;;;;19.10;7.60;;;8.30;99.90;;;;;;4876497;29;20570;-74
2022/12/01 15:40:53;;;;;;;16.40;7.27;;;8.20;99.90;;;;;;4876592;29;20212;-74
2022/12/01 15:43:22;;;;;;;21.13;7.73;;;8.20;99.90;;;;;;4879136;29;20225;-73
2022/12/01 15:45:53;;;;;;;23.27;7.77;;;8.20;99.90;;;;;;4880435;29;20237;-74
2022/12/01 15:48:28;;;;;;;16.20;7.03;;;8.20;99.90;;;;;;4880172;29;20211;-74
2022/12/01 15:51:06;;;;;;;15.87;6.80;;;8.20;99.90;;;;;;4880525;29;20206;-73
2022/12/01 15:53:36;;;;;;;22.47;8.10;;;8.20;99.90;;;;;;4877910;29;20226;-73
2022/12/01 15:56:07;;;;;;;27.23;8.67;;;8.20;99.90;;;;;;4877380;29;20302;-74
2022/12/01 15:58:39;;;;;;;22.40;8.77;;;8.10;99.90;;;;;;4881598;29;20211;-70
2022/12/01 16:01:10;;;;;;;16.87;7.60;;;8.00;99.90;;;;;;4882044;29;20211;-74
2022/12/01 16:03:50;;;;;;;14.97;7.23;;;8.00;99.90;;;;;;4881911;29;20214;-76
2022/12/01 16:06:17;;;;;;;18.80;7.70;;;8.10;99.90;;;;;;4881599;29;20242;-74
2022/12/01 16:08:54;;;;;;;19.67;7.60;;;8.20;99.90;;;;;;4881831;29;20341;-72
2022/12/01 16:11:23;;;;;;;23.73;8.07;;;8.10;99.90;;;;;;4882065;29;20211;-73
2022/12/01 16:13:58;;;;;;;22.03;8.63;;;8.10;99.90;;;;;;4881697;29;20214;-73
2022/12/01 16:16:40;;;;;;;18.47;7.97;;;8.00;99.90;;;;;;4881174;29;20675;-72
2022/12/01 16:19:34;;;;;;;19.57;8.70;;;7.90;99.90;;;;;;4881264;29;20234;-73
2022/12/01 16:22:11;;;;;;;18.87;7.47;;;7.90;99.90;;;;;;4859130;29;20215;-73
2022/12/01 16:24:45;;;;;;;21.37;7.90;;;7.80;99.90;;;;;;4881410;29;20245;-73
2022/12/01 16:27:20;;;;;;;21.97;7.50;;;7.80;99.90;;;;;;4862951;29;20307;-74
2022/12/01 16:29:50;;;;;;;19.97;7.47;;;7.70;99.90;;;;;;4862635;29;20236;-73
2022/12/01 16:32:19;;;;;;;18.37;7.40;;;7.60;99.90;;;;;;4862867;29;20236;-73
2022/12/01 16:34:47;;;;;;;22.13;8.23;;;7.70;99.90;;;;;;4863800;29;20247;-74
2022/12/01 16:37:14;;;;;;;20.77;8.30;;;7.70;99.90;;;;;;4881345;29;20230;-73
2022/12/01 16:39:41;;;;;;;24.43;7.37;;;7.80;99.90;;;;;;4881360;29;20231;-73
2022/12/01 16:42:12;;;;;;;18.13;7.70;;;7.70;99.90;;;;;;4881376;29;20219;-73
2022/12/01 16:44:40;;;;;;;23.80;7.50;;;7.60;99.90;;;;;;4880998;29;20239;-74
2022/12/01 16:47:15;;;;;;;24.47;8.30;;;7.70;99.90;;;;;;4881348;29;20253;-74
2022/12/01 16:49:42;;;;;;;21.70;8.63;;;7.50;99.90;;;;;;4880865;29;20711;-73
2022/12/01 16:52:09;;;;;;;22.43;8.33;;;7.60;99.90;;;;;;4880686;29;20211;-72
2022/12/01 16:54:36;;;;;;;20.90;7.70;;;7.70;99.90;;;;;;4879962;29;20226;-71
2022/12/01 16:57:03;;;;;;;25.60;8.33;;;7.70;99.90;;;;;;4862357;29;20299;-74
2022/12/01 16:59:30;;;;;;;20.17;8.40;;;7.60;99.90;;;;;;4862616;29;20234;-73
2022/12/01 17:01:59;;;;;;;20.00;8.53;;;7.70;99.90;;;;;;4862206;29;20204;-74
2022/12/01 17:04:26;;;;;;;20.53;8.10;;;7.80;99.90;;;;;;4862077;29;20216;-73
2022/12/01 17:06:53;;;;;;;19.57;8.77;;;7.70;99.90;;;;;;4879097;29;20211;-72
2022/12/01 17:09:21;;;;;;;24.17;8.77;;;7.80;99.90;;;;;;4880577;29;20568;-73
2022/12/01 17:11:48;;;;;;;23.67;9.07;;;7.70;99.90;;;;;;4880802;29;20215;-73
2022/12/01 17:14:15;;;;;;;25.77;8.50;;;7.70;99.90;;;;;;4880890;29;20214;-74
2022/12/01 17:16:41;;;;;;;24.57;9.27;;;7.60;99.90;;;;;;4880559;29;20211;-73
2022/12/01 17:19:11;;;;;;;23.43;9.40;;;7.50;99.90;;;;;;4880193;29;20289;-74
2022/12/01 17:21:38;;;;;;;25.90;9.83;;;7.50;99.90;;;;;;4880549;29;20770;-73
2022/12/01 17:24:05;;;;;;;24.80;9.10;;;7.50;99.90;;;;;;4880369;29;20737;-74
2022/12/01 17:26:32;;;;;;;22.53;8.83;;;7.50;99.90;;;;;;4880158;29;20336;-73
2022/12/01 17:28:58;;;;;;;24.23;9.00;;;7.60;99.90;;;;;;4880175;29;20711;-74
2022/12/01 17:31:25;;;;;;;27.87;9.67;;;7.50;99.90;;;;;;4880412;29;20266;-73
2022/12/01 17:33:52;;;;;;;23.60;8.50;;;7.60;99.90;;;;;;4877182;29;20295;-72
2022/12/01 17:36:20;;;;;;;28.70;9.97;;;7.60;99.90;;;;;;4878793;29;20679;-73
2022/12/01 17:38:48;;;;;;;27.20;9.33;;;7.60;99.90;;;;;;4878787;29;20238;-72
2022/12/01 17:41:17;;;;;;;24.20;9.67;;;7.60;99.90;;;;;;4878926;29;20244;-72
2022/12/01 17:43:44;;;;;;;24.60;8.83;;;7.60;99.90;;;;;;4879886;29;20212;-72
2022/12/01 17:46:12;;;;;;;23.57;9.90;;;7.60;99.90;;;;;;4878500;29;20247;-70
2022/12/01 17:48:40;;;;;;;22.10;8.93;;;7.50;99.90;;;;;;4878145;29;20737;-73
2022/12/01 17:51:08;;;;;;;32.13;9.47;;;7.50;99.90;;;;;;4878702;29;20207;-73
2022/12/01 17:53:38;;;;;;;21.17;9.63;;;7.50;99.90;;;;;;4878082;29;20678;-73
2022/12/01 17:56:07;;;;;;;23.07;9.53;;;7.60;99.90;;;;;;4877513;29;20604;-73
2022/12/01 17:58:34;;;;;;;22.37;8.87;;;7.70;99.90;;;;;;4877511;29;20307;-71
2022/12/01 18:01:01;;;;;;;27.33;10.90;;;7.60;99.90;;;;;;4877894;29;20710;-73
2022/12/01 18:03:27;;;;;;;23.50;8.93;;;7.70;99.90;;;;;;4877760;29;20214;-71
2022/12/01 18:05:56;;;;;;;26.03;10.13;;;7.60;99.90;;;;;;4877585;29;20318;-72
2022/12/01 18:08:24;;;;;;;24.13;8.60;;;7.60;99.90;;;;;;4878096;29;20222;-69
2022/12/01 18:10:52;;;;;;;26.73;10.27;;;7.60;99.90;;;;;;4877574;29;20218;-73
2022/12/01 18:13:19;;;;;;;24.87;9.37;;;7.50;99.90;;;;;;4877802;29;20212;-72
2022/12/01 18:15:46;;;;;;;25.80;9.73;;;7.60;99.90;;;;;;4877845;29;20491;-73
2022/12/01 18:18:13;;;;;;;27.83;10.67;;;7.50;99.90;;;;;;4877589;29;20309;-71
2022/12/01 18:20:41;;;;;;;22.57;10.60;;;7.50;99.90;;;;;;4878139;29;20237;-72
2022/12/01 18:23:08;;;;;;;25.43;9.23;;;7.50;99.90;;;;;;4875375;29;20211;-73
2022/12/01 18:25:35;;;;;;;21.37;9.47;;;7.50;99.90;;;;;;4875907;29;20350;-73
2022/12/01 18:28:04;;;;;;;28.10;10.70;;;7.40;99.90;;;;;;4874625;29;20222;-70
2022/12/01 18:30:32;;;;;;;24.53;9.90;;;7.40;99.90;;;;;;4877385;29;20239;-74
2022/12/01 18:33:00;;;;;;;23.87;9.47;;;7.20;99.90;;;;;;4878889;29;20318;-73
2022/12/01 18:35:27;;;;;;;26.17;9.73;;;7.20;99.90;;;;;;4878955;29;20214;-74
2022/12/01 18:37:53;;;;;;;26.53;9.87;;;7.20;99.90;;;;;;4879299;29;20221;-73
2022/12/01 18:40:20;;;;;;;31.37;11.17;;;7.30;99.90;;;;;;4879021;29;20231;-73
2022/12/01 18:42:49;;;;;;;23.40;9.23;;;7.10;99.90;;;;;;4878808;29;20207;-73
2022/12/01 18:45:18;;;;;;;24.50;9.73;;;7.20;99.90;;;;;;4878548;29;20722;-73
2022/12/01 18:47:45;;;;;;;24.10;10.07;;;7.20;99.90;;;;;;4879213;29;20211;-73
2022/12/01 18:50:12;;;;;;;24.80;9.77;;;7.30;99.90;;;;;;4879065;29;20350;-72
2022/12/01 18:52:38;;;;;;;21.87;9.30;;;7.20;99.90;;;;;;4879060;29;20459;-73
2022/12/01 18:55:06;;;;;;;26.40;9.20;;;7.20;99.90;;;;;;4878835;29;20215;-72
2022/12/01 18:57:33;;;;;;;26.03;10.33;;;7.00;99.90;;;;;;4878491;29;20207;-73
2022/12/01 18:59:59;;;;;;;21.93;9.77;;;6.80;99.90;;;;;;4878140;29;20282;-73
2022/12/01 19:02:27;;;;;;;24.73;10.50;;;6.70;99.90;;;;;;4878529;29;20221;-73
2022/12/01 19:04:54;;;;;;;21.93;9.77;;;6.60;99.90;;;;;;4878628;29;20233;-73
2022/12/01 19:07:21;;;;;;;26.70;9.03;;;6.60;99.90;;;;;;4878676;29;20210;-73
2022/12/01 19:09:48;;;;;;;24.33;9.07;;;6.60;99.90;;;;;;4878695;29;20543;-73
2022/12/01 19:12:15;;;;;;;27.00;10.60;;;6.70;99.90;;;;;;4878749;29;20211;-73
2022/12/01 19:14:42;;;;;;;26.20;10.53;;;6.80;99.90;;;;;;4878851;29;20218;-75
2022/12/01 19:17:09;;;;;;;30.43;10.03;;;6.80;99.90;;;;;;4879200;29;20673;-75
2022/12/01 19:19:37;;;;;;;24.10;9.33;;;7.00;99.90;;;;;;4882779;29;20241;-73
2022/12/01 19:22:04;;;;;;;19.90;8.97;;;7.10;99.90;;;;;;4882368;29;20440;-73
2022/12/01 19:24:31;;;;;;;25.30;9.63;;;7.10;99.90;;;;;;4882286;29;20218;-74
2022/12/01 19:26:58;;;;;;;24.00;9.83;;;6.90;99.90;;;;;;4882191;29;20647;-73
2022/12/01 19:29:24;;;;;;;22.43;10.13;;;7.00;99.90;;;;;;4882082;29;20227;-72
2022/12/01 19:31:51;;;;;;;27.87;9.50;;;7.30;99.90;;;;;;4882253;29;20298;-72
2022/12/01 19:34:18;;;;;;;26.10;10.63;;;7.50;99.90;;;;;;4882006;29;20276;-73
2022/12/01 19:36:48;;;;;;;23.33;9.67;;;7.70;99.90;;;;;;4882209;29;20218;-73
2022/12/01 19:39:15;;;;;;;31.57;10.93;;;7.70;99.90;;;;;;4882153;29;20231;-73
2022/12/01 19:41:42;;;;;;;25.80;10.30;;;7.70;99.90;;;;;;4882001;29;20306;-73
2022/12/01 19:44:09;;;;;;;25.13;9.37;;;7.60;99.90;;;;;;4882167;29;20218;-73
2022/12/01 19:46:36;;;;;;;26.00;9.47;;;7.50;99.90;;;;;;4882081;29;20243;-73
2022/12/01 19:49:04;;;;;;;29.13;10.73;;;7.20;99.90;;;;;;4878411;29;20254;-73
